sensor_id;sensor_type;location;lat;lon;timestamp;pressure;altitude;pressure_sealevel;temperature;humidity
36062;BME280;22123;52.412;20.970;2023-05-09T00:00:32;102086.38;;;0.58;100.00
36062;BME280;22123;52.412;20.970;2023-05-09T00:02:58;102045.72;;;0.38;100.00
36062;BME280;22123;52.412;20.970;2023-05-09T00:05:24;102060.41;;;0.45;100.00
36062;BME280;22123;52.412;20.970;2023-05-09T00:07:51;102066.63;;;0.44;100.00
36062;BME280;22123;52.412;20.970;2023-05-09T00:10:17;102101.13;;;0.63;100.00
36062;BME280;22123;52.412;20.970;2023-05-09T00:12:43;102067.50;;;0.45;100.00
36062;BME280;22123;52.412;20.970;2023-05-09T00:15:09;101972.03;;;-0.14;100.00
36062;BME280;22123;52.412;20.970;2023-05-09T00:17:35;102052.84;;;0.36;100.00
36062;BME280;22123;52.412;20.970;2023-05-09T00:20:01;102089.97;;;0.57;100.00
36062;BME280;22123;52.412;20.970;2023-05-09T00:22:27;102029.63;;;0.22;100.00
36062;BME280;22123;52.412;20.970;2023-05-09T00:24:53;102041.56;;;0.32;100.00
36062;BME280;22123;52.412;20.970;2023-05-09T00:27:19;102058.16;;;0.36;100.00
36062;BME280;22123;52.412;20.970;2023-05-09T00:29:45;102061.63;;;0.38;100.00
36062;BME280;22123;52.412;20.970;2023-05-09T00:32:10;102091.03;;;0.52;100.00
36062;BME280;22123;52.412;20.970;2023-05-09T00:34:36;102039.34;;;0.22;100.00
36062;BME280;22123;52.412;20.970;2023-05-09T00:37:02;102090.56;;;0.43;100.00
36062;BME280;22123;52.412;20.970;2023-05-09T00:39:28;102064.72;;;0.27;100.00
36062;BME280;22123;52.412;20.970;2023-05-09T00:41:55;102079.63;;;0.30;100.00
36062;BME280;22123;52.412;20.970;2023-05-09T00:44:20;102077.81;;;0.30;100.00
36062;BME280;22123;52.412;20.970;2023-05-09T00:46:46;102048.50;;;0.14;100.00
36062;BME280;22123;52.412;20.970;2023-05-09T00:49:12;102035.19;;;-0.05;100.00
36062;BME280;22123;52.412;20.970;2023-05-09T00:51:39;102074.81;;;0.19;100.00
36062;BME280;22123;52.412;20.970;2023-05-09T00:54:06;102089.56;;;0.25;100.00
36062;BME280;22123;52.412;20.970;2023-05-09T00:56:32;102082.88;;;0.16;100.00
36062;BME280;22123;52.412;20.970;2023-05-09T00:58:58;102054.31;;;0.02;100.00
36062;BME280;22123;52.412;20.970;2023-05-09T01:01:24;102057.88;;;0.01;100.00
36062;BME280;22123;52.412;20.970;2023-05-09T01:03:51;102079.34;;;0.15;100.00
36062;BME280;22123;52.412;20.970;2023-05-09T01:06:40;102042.34;;;-0.07;100.00
36062;BME280;22123;52.412;20.970;2023-05-09T01:09:14;102080.88;;;0.21;100.00
36062;BME280;22123;52.412;20.970;2023-05-09T01:15:11;102085.47;;;0.17;100.00
36062;BME280;22123;52.412;20.970;2023-05-09T01:20:34;102086.09;;;0.02;100.00
36062;BME280;22123;52.412;20.970;2023-05-09T01:31:40;102042.38;;;-0.29;100.00
36062;BME280;22123;52.412;20.970;2023-05-09T01:34:07;102041.69;;;-0.34;100.00
36062;BME280;22123;52.412;20.970;2023-05-09T01:36:36;102083.16;;;-0.12;100.00
36062;BME280;22123;52.412;20.970;2023-05-09T01:39:05;102084.00;;;-0.12;100.00
36062;BME280;22123;52.412;20.970;2023-05-09T01:41:33;102063.41;;;-0.26;100.00
36062;BME280;22123;52.412;20.970;2023-05-09T01:44:02;102015.25;;;-0.56;100.00
36062;BME280;22123;52.412;20.970;2023-05-09T01:46:29;102087.59;;;-0.13;100.00
36062;BME280;22123;52.412;20.970;2023-05-09T01:48:56;102039.31;;;-0.40;100.00
36062;BME280;22123;52.412;20.970;2023-05-09T01:51:23;102057.63;;;-0.36;100.00
36062;BME280;22123;52.412;20.970;2023-05-09T01:53:51;102049.81;;;-0.39;100.00
36062;BME280;22123;52.412;20.970;2023-05-09T01:56:18;102051.78;;;-0.44;100.00
36062;BME280;22123;52.412;20.970;2023-05-09T01:58:45;102062.13;;;-0.38;100.00
36062;BME280;22123;52.412;20.970;2023-05-09T02:01:12;102051.78;;;-0.44;100.00
36062;BME280;22123;52.412;20.970;2023-05-09T02:03:39;102023.47;;;-0.64;100.00
36062;BME280;22123;52.412;20.970;2023-05-09T02:06:05;102077.75;;;-0.31;100.00
36062;BME280;22123;52.412;20.970;2023-05-09T02:08:32;102052.66;;;-0.43;100.00
36062;BME280;22123;52.412;20.970;2023-05-09T02:10:58;102059.78;;;-0.45;100.00
36062;BME280;22123;52.412;20.970;2023-05-09T02:13:23;102038.38;;;-0.61;100.00
36062;BME280;22123;52.412;20.970;2023-05-09T02:15:49;102079.84;;;-0.40;100.00
36062;BME280;22123;52.412;20.970;2023-05-09T02:18:16;102021.84;;;-0.66;100.00
36062;BME280;22123;52.412;20.970;2023-05-09T02:20:42;102036.66;;;-0.62;100.00
36062;BME280;22123;52.412;20.970;2023-05-09T02:23:08;102079.91;;;-0.41;100.00
36062;BME280;22123;52.412;20.970;2023-05-09T02:25:33;102085.25;;;-0.43;100.00
36062;BME280;22123;52.412;20.970;2023-05-09T02:28:00;102081.78;;;-0.43;100.00
36062;BME280;22123;52.412;20.970;2023-05-09T02:30:30;102058.50;;;-0.57;100.00
36062;BME280;22123;52.412;20.970;2023-05-09T02:33:03;102063.59;;;-0.53;100.00
36062;BME280;22123;52.412;20.970;2023-05-09T02:35:30;102016.97;;;-0.77;100.00
36062;BME280;22123;52.412;20.970;2023-05-09T02:37:58;102035.41;;;-0.76;100.00
36062;BME280;22123;52.412;20.970;2023-05-09T02:40:25;102075.06;;;-0.52;100.00
36062;BME280;22123;52.412;20.970;2023-05-09T02:42:51;102031.84;;;-0.75;100.00
36062;BME280;22123;52.412;20.970;2023-05-09T02:45:17;102030.25;;;-0.79;100.00
36062;BME280;22123;52.412;20.970;2023-05-09T02:47:42;102052.81;;;-0.70;100.00
36062;BME280;22123;52.412;20.970;2023-05-09T02:50:09;102078.06;;;-0.61;100.00
36062;BME280;22123;52.412;20.970;2023-05-09T02:52:34;102035.91;;;-0.88;100.00
36062;BME280;22123;52.412;20.970;2023-05-09T02:55:01;102057.50;;;-0.77;100.00
36062;BME280;22123;52.412;20.970;2023-05-09T02:57:27;102032.38;;;-0.89;100.00
36062;BME280;22123;52.412;20.970;2023-05-09T02:59:53;102028.94;;;-0.91;100.00
36062;BME280;22123;52.412;20.970;2023-05-09T03:02:19;102020.38;;;-0.97;100.00
36062;BME280;22123;52.412;20.970;2023-05-09T03:04:45;102061.81;;;-0.74;100.00
36062;BME280;22123;52.412;20.970;2023-05-09T03:07:10;102059.22;;;-0.76;100.00
36062;BME280;22123;52.412;20.970;2023-05-09T03:09:36;102033.47;;;-0.94;100.00
36062;BME280;22123;52.412;20.970;2023-05-09T03:12:03;102051.59;;;-0.83;100.00
36062;BME280;22123;52.412;20.970;2023-05-09T03:14:28;102040.44;;;-0.92;100.00
36062;BME280;22123;52.412;20.970;2023-05-09T03:16:54;102037.66;;;-0.89;100.00
36062;BME280;22123;52.412;20.970;2023-05-09T03:19:20;102045.59;;;-0.89;100.00
36062;BME280;22123;52.412;20.970;2023-05-09T03:21:46;102036.13;;;-0.94;100.00
36062;BME280;22123;52.412;20.970;2023-05-09T03:24:12;102081.81;;;-0.67;100.00
36062;BME280;22123;52.412;20.970;2023-05-09T03:26:38;102048.31;;;-0.90;100.00
36062;BME280;22123;52.412;20.970;2023-05-09T03:29:04;102043.03;;;-0.90;100.00
36062;BME280;22123;52.412;20.970;2023-05-09T03:31:30;102082.03;;;-0.73;100.00
36062;BME280;22123;52.412;20.970;2023-05-09T03:33:56;102090.56;;;-0.65;100.00
36062;BME280;22123;52.412;20.970;2023-05-09T03:36:21;102056.75;;;-0.80;100.00
36062;BME280;22123;52.412;20.970;2023-05-09T03:38:47;102058.13;;;-0.70;100.00
36062;BME280;22123;52.412;20.970;2023-05-09T03:41:15;102043.41;;;-0.77;100.00
36062;BME280;22123;52.412;20.970;2023-05-09T03:43:41;102051.09;;;-0.71;100.00
36062;BME280;22123;52.412;20.970;2023-05-09T03:46:07;102090.69;;;-0.46;100.00
36062;BME280;22123;52.412;20.970;2023-05-09T03:48:33;102067.28;;;-0.57;100.00
36062;BME280;22123;52.412;20.970;2023-05-09T03:50:59;102099.84;;;-0.32;100.00
36062;BME280;22123;52.412;20.970;2023-05-09T03:53:25;102047.84;;;-0.56;100.00
36062;BME280;22123;52.412;20.970;2023-05-09T03:55:51;102058.03;;;-0.45;100.00
36062;BME280;22123;52.412;20.970;2023-05-09T03:58:17;102036.28;;;-0.53;100.00
36062;BME280;22123;52.412;20.970;2023-05-09T04:00:42;102056.66;;;-0.33;100.00
36062;BME280;22123;52.412;20.970;2023-05-09T04:03:08;102051.09;;;-0.27;100.00
36062;BME280;22123;52.412;20.970;2023-05-09T04:05:34;102065.34;;;-0.09;100.00
36062;BME280;22123;52.412;20.970;2023-05-09T04:08:00;102065.19;;;-0.04;100.00
36062;BME280;22123;52.412;20.970;2023-05-09T04:10:26;102047.38;;;-0.01;100.00
36062;BME280;22123;52.412;20.970;2023-05-09T04:12:52;102065.19;;;0.16;100.00
36062;BME280;22123;52.412;20.970;2023-05-09T04:15:18;102087.13;;;0.41;100.00
36062;BME280;22123;52.412;20.970;2023-05-09T04:17:44;102046.09;;;0.29;100.00
36062;BME280;22123;52.412;20.970;2023-05-09T04:20:10;102057.78;;;0.45;100.00
36062;BME280;22123;52.412;20.970;2023-05-09T04:22:36;102039.22;;;0.45;100.00
36062;BME280;22123;52.412;20.970;2023-05-09T04:25:02;102071.66;;;0.71;100.00
36062;BME280;22123;52.412;20.970;2023-05-09T04:27:28;102065.16;;;0.78;100.00
36062;BME280;22123;52.412;20.970;2023-05-09T04:29:54;102028.66;;;0.64;100.00
36062;BME280;22123;52.412;20.970;2023-05-09T04:32:20;102050.69;;;0.85;100.00
36062;BME280;22123;52.412;20.970;2023-05-09T04:34:46;102048.28;;;0.98;100.00
36062;BME280;22123;52.412;20.970;2023-05-09T04:37:12;102044.34;;;1.07;100.00
36062;BME280;22123;52.412;20.970;2023-05-09T04:39:38;102081.66;;;1.42;100.00
36062;BME280;22123;52.412;20.970;2023-05-09T04:42:04;102081.03;;;1.54;100.00
36062;BME280;22123;52.412;20.970;2023-05-09T04:44:30;102050.34;;;1.49;100.00
36062;BME280;22123;52.412;20.970;2023-05-09T04:46:56;102086.16;;;1.77;100.00
36062;BME280;22123;52.412;20.970;2023-05-09T04:49:22;102063.06;;;1.79;100.00
36062;BME280;22123;52.412;20.970;2023-05-09T04:51:48;102068.63;;;1.91;100.00
36062;BME280;22123;52.412;20.970;2023-05-09T04:54:15;102049.88;;;1.95;100.00
36062;BME280;22123;52.412;20.970;2023-05-09T04:56:43;102069.03;;;2.19;100.00
36062;BME280;22123;52.412;20.970;2023-05-09T04:59:09;102033.00;;;2.13;100.00
36062;BME280;22123;52.412;20.970;2023-05-09T05:01:35;102046.44;;;2.28;100.00
36062;BME280;22123;52.412;20.970;2023-05-09T05:04:01;102019.06;;;2.25;100.00
36062;BME280;22123;52.412;20.970;2023-05-09T05:06:27;102042.59;;;2.51;100.00
36062;BME280;22123;52.412;20.970;2023-05-09T05:08:53;102061.75;;;2.73;100.00
36062;BME280;22123;52.412;20.970;2023-05-09T05:11:19;102075.88;;;2.91;100.00
36062;BME280;22123;52.412;20.970;2023-05-09T05:13:45;102045.16;;;2.86;100.00
36062;BME280;22123;52.412;20.970;2023-05-09T05:16:10;102065.66;;;3.16;100.00
36062;BME280;22123;52.412;20.970;2023-05-09T05:18:36;102039.66;;;3.05;100.00
36062;BME280;22123;52.412;20.970;2023-05-09T05:21:02;102040.44;;;3.23;100.00
36062;BME280;22123;52.412;20.970;2023-05-09T05:23:28;102039.84;;;3.34;100.00
36062;BME280;22123;52.412;20.970;2023-05-09T05:25:54;102031.94;;;3.48;100.00
36062;BME280;22123;52.412;20.970;2023-05-09T05:28:20;102054.59;;;3.71;100.00
36062;BME280;22123;52.412;20.970;2023-05-09T05:30:46;102054.47;;;3.89;100.00
36062;BME280;22123;52.412;20.970;2023-05-09T05:33:12;102084.25;;;4.11;100.00
36062;BME280;22123;52.412;20.970;2023-05-09T05:35:38;102053.56;;;4.18;100.00
36062;BME280;22123;52.412;20.970;2023-05-09T05:38:03;102044.75;;;4.32;100.00
36062;BME280;22123;52.412;20.970;2023-05-09T05:40:29;102045.72;;;4.46;100.00
36062;BME280;22123;52.412;20.970;2023-05-09T05:42:55;102018.31;;;4.44;100.00
36062;BME280;22123;52.412;20.970;2023-05-09T05:45:21;102026.78;;;4.65;100.00
36062;BME280;22123;52.412;20.970;2023-05-09T05:47:47;102058.22;;;5.03;100.00
36062;BME280;22123;52.412;20.970;2023-05-09T05:50:13;102024.56;;;5.00;100.00
36062;BME280;22123;52.412;20.970;2023-05-09T05:52:40;102045.78;;;5.16;100.00
36062;BME280;22123;52.412;20.970;2023-05-09T05:55:06;102047.13;;;5.23;100.00
36062;BME280;22123;52.412;20.970;2023-05-09T05:57:32;102028.34;;;5.25;100.00
36062;BME280;22123;52.412;20.970;2023-05-09T05:59:58;102037.50;;;5.48;100.00
36062;BME280;22123;52.412;20.970;2023-05-09T06:02:24;102061.78;;;5.72;100.00
36062;BME280;22123;52.412;20.970;2023-05-09T06:04:50;102048.72;;;5.68;100.00
36062;BME280;22123;52.412;20.970;2023-05-09T06:07:16;102062.56;;;5.87;100.00
36062;BME280;22123;52.412;20.970;2023-05-09T06:09:42;102067.13;;;6.00;100.00
36062;BME280;22123;52.412;20.970;2023-05-09T06:12:08;102038.16;;;6.06;100.00
36062;BME280;22123;52.412;20.970;2023-05-09T06:14:34;102052.22;;;6.36;100.00
36062;BME280;22123;52.412;20.970;2023-05-09T06:16:59;102027.47;;;6.32;100.00
36062;BME280;22123;52.412;20.970;2023-05-09T06:19:26;102019.91;;;6.39;100.00
36062;BME280;22123;52.412;20.970;2023-05-09T06:21:51;102021.19;;;6.46;100.00
36062;BME280;22123;52.412;20.970;2023-05-09T06:24:17;102065.25;;;6.79;100.00
36062;BME280;22123;52.412;20.970;2023-05-09T06:26:43;102043.84;;;6.79;100.00
36062;BME280;22123;52.412;20.970;2023-05-09T06:29:09;102045.75;;;7.03;100.00
36062;BME280;22123;52.412;20.970;2023-05-09T06:31:35;102014.50;;;7.27;100.00
36062;BME280;22123;52.412;20.970;2023-05-09T06:34:01;102051.09;;;8.35;100.00
36062;BME280;22123;52.412;20.970;2023-05-09T06:36:27;102048.63;;;9.89;100.00
36062;BME280;22123;52.412;20.970;2023-05-09T06:38:52;102033.56;;;11.81;100.00
36062;BME280;22123;52.412;20.970;2023-05-09T06:41:18;102051.03;;;12.83;100.00
36062;BME280;22123;52.412;20.970;2023-05-09T06:43:44;102032.28;;;12.82;100.00
36062;BME280;22123;52.412;20.970;2023-05-09T06:46:10;102021.00;;;12.49;100.00
36062;BME280;22123;52.412;20.970;2023-05-09T06:48:36;102044.28;;;12.97;100.00
36062;BME280;22123;52.412;20.970;2023-05-09T06:51:02;102016.97;;;13.64;100.00
36062;BME280;22123;52.412;20.970;2023-05-09T06:53:28;102014.00;;;14.90;100.00
36062;BME280;22123;52.412;20.970;2023-05-09T06:55:54;102045.38;;;15.52;100.00
36062;BME280;22123;52.412;20.970;2023-05-09T06:58:19;102033.75;;;16.09;100.00
36062;BME280;22123;52.412;20.970;2023-05-09T07:00:45;102038.88;;;17.56;100.00
36062;BME280;22123;52.412;20.970;2023-05-09T07:03:11;101992.72;;;18.39;100.00
36062;BME280;22123;52.412;20.970;2023-05-09T07:05:37;102016.63;;;18.52;100.00
36062;BME280;22123;52.412;20.970;2023-05-09T07:08:03;102011.84;;;17.78;100.00
36062;BME280;22123;52.412;20.970;2023-05-09T07:10:28;102025.53;;;17.15;100.00
36062;BME280;22123;52.412;20.970;2023-05-09T07:12:54;101981.50;;;16.55;100.00
36062;BME280;22123;52.412;20.970;2023-05-09T07:15:20;102017.28;;;16.83;100.00
36062;BME280;22123;52.412;20.970;2023-05-09T07:17:46;101991.25;;;17.52;100.00
36062;BME280;22123;52.412;20.970;2023-05-09T07:20:12;101976.34;;;18.84;91.09
36062;BME280;22123;52.412;20.970;2023-05-09T07:22:37;102001.03;;;20.42;57.56
36062;BME280;22123;52.412;20.970;2023-05-09T07:25:07;101943.16;;;22.02;45.57
36062;BME280;22123;52.412;20.970;2023-05-09T07:27:34;101977.53;;;24.61;36.50
36062;BME280;22123;52.412;20.970;2023-05-09T07:30:00;101978.28;;;26.49;30.86
36062;BME280;22123;52.412;20.970;2023-05-09T07:32:26;101951.91;;;28.64;27.48
36062;BME280;22123;52.412;20.970;2023-05-09T07:34:51;101960.00;;;30.23;24.99
36062;BME280;22123;52.412;20.970;2023-05-09T07:37:17;101961.59;;;31.61;23.25
36062;BME280;22123;52.412;20.970;2023-05-09T07:39:43;101955.59;;;33.05;23.00
36062;BME280;22123;52.412;20.970;2023-05-09T07:42:09;101975.59;;;34.45;21.28
36062;BME280;22123;52.412;20.970;2023-05-09T07:44:35;101952.41;;;35.45;20.31
36062;BME280;22123;52.412;20.970;2023-05-09T07:47:01;101943.31;;;36.55;18.36
36062;BME280;22123;52.412;20.970;2023-05-09T07:49:27;101961.72;;;37.35;18.21
36062;BME280;22123;52.412;20.970;2023-05-09T07:51:53;101936.16;;;37.68;16.77
36062;BME280;22123;52.412;20.970;2023-05-09T07:54:18;101944.25;;;38.41;15.30
36062;BME280;22123;52.412;20.970;2023-05-09T07:56:44;101964.84;;;38.19;15.65
36062;BME280;22123;52.412;20.970;2023-05-09T07:59:10;101948.69;;;38.24;16.17
36062;BME280;22123;52.412;20.970;2023-05-09T08:01:36;101943.53;;;38.75;15.15
36062;BME280;22123;52.412;20.970;2023-05-09T08:04:02;101938.41;;;39.04;15.19
36062;BME280;22123;52.412;20.970;2023-05-09T08:06:28;101957.25;;;39.03;14.49
36062;BME280;22123;52.412;20.970;2023-05-09T08:08:54;101954.94;;;39.40;13.08
36062;BME280;22123;52.412;20.970;2023-05-09T08:11:20;101957.25;;;39.56;13.88
36062;BME280;22123;52.412;20.970;2023-05-09T08:13:45;101947.78;;;39.69;13.60
36062;BME280;22123;52.412;20.970;2023-05-09T08:16:11;101938.44;;;39.77;14.18
36062;BME280;22123;52.412;20.970;2023-05-09T08:18:37;101941.25;;;40.25;13.57
36062;BME280;22123;52.412;20.970;2023-05-09T08:21:03;101923.34;;;40.21;13.94
36062;BME280;22123;52.412;20.970;2023-05-09T08:23:29;101923.25;;;40.38;12.47
36062;BME280;22123;52.412;20.970;2023-05-09T08:25:55;101948.38;;;40.61;12.78
36062;BME280;22123;52.412;20.970;2023-05-09T08:28:21;101925.78;;;40.61;11.50
36062;BME280;22123;52.412;20.970;2023-05-09T08:30:47;101902.13;;;39.85;13.04
36062;BME280;22123;52.412;20.970;2023-05-09T08:33:13;101928.97;;;39.91;13.59
36062;BME280;22123;52.412;20.970;2023-05-09T08:35:39;101903.69;;;39.73;13.78
36062;BME280;22123;52.412;20.970;2023-05-09T08:38:05;101928.03;;;38.29;14.86
36062;BME280;22123;52.412;20.970;2023-05-09T08:40:34;101897.53;;;36.32;16.22
36062;BME280;22123;52.412;20.970;2023-05-09T08:43:02;101903.81;;;35.55;16.24
36062;BME280;22123;52.412;20.970;2023-05-09T08:45:29;101916.56;;;34.27;17.36
36062;BME280;22123;52.412;20.970;2023-05-09T08:47:55;101916.19;;;32.77;15.71
36062;BME280;22123;52.412;20.970;2023-05-09T08:50:21;101928.44;;;31.18;18.57
36062;BME280;22123;52.412;20.970;2023-05-09T08:52:48;101910.28;;;30.16;19.60
36062;BME280;22123;52.412;20.970;2023-05-09T08:55:14;101923.78;;;29.97;20.10
36062;BME280;22123;52.412;20.970;2023-05-09T08:57:40;101887.56;;;30.24;19.63
36062;BME280;22123;52.412;20.970;2023-05-09T09:00:06;101863.41;;;29.39;20.50
36062;BME280;22123;52.412;20.970;2023-05-09T09:02:34;101893.44;;;27.65;21.28
36062;BME280;22123;52.412;20.970;2023-05-09T09:05:00;101909.91;;;26.80;23.37
36062;BME280;22123;52.412;20.970;2023-05-09T09:07:26;101925.63;;;26.39;23.39
36062;BME280;22123;52.412;20.970;2023-05-09T09:09:53;101890.22;;;25.65;25.34
36062;BME280;22123;52.412;20.970;2023-05-09T09:12:21;101904.19;;;25.28;27.05
36062;BME280;22123;52.412;20.970;2023-05-09T09:14:49;101886.94;;;24.90;26.79
36062;BME280;22123;52.412;20.970;2023-05-09T09:17:19;101921.88;;;24.41;24.29
36062;BME280;22123;52.412;20.970;2023-05-09T09:19:48;101914.28;;;23.74;24.06
36062;BME280;22123;52.412;20.970;2023-05-09T09:22:17;101899.94;;;23.15;24.75
36062;BME280;22123;52.412;20.970;2023-05-09T09:24:43;101861.81;;;22.48;25.92
36062;BME280;22123;52.412;20.970;2023-05-09T09:27:09;101907.91;;;22.32;27.82
36062;BME280;22123;52.412;20.970;2023-05-09T09:29:35;101888.59;;;21.67;26.17
36062;BME280;22123;52.412;20.970;2023-05-09T09:32:02;101912.78;;;21.43;28.49
36062;BME280;22123;52.412;20.970;2023-05-09T09:34:28;101896.72;;;21.20;32.03
36062;BME280;22123;52.412;20.970;2023-05-09T09:36:54;101882.41;;;21.05;28.07
36062;BME280;22123;52.412;20.970;2023-05-09T09:39:20;101883.59;;;20.82;26.65
36062;BME280;22123;52.412;20.970;2023-05-09T09:41:46;101900.53;;;20.57;32.01
36062;BME280;22123;52.412;20.970;2023-05-09T09:44:15;101869.16;;;20.11;30.05
36062;BME280;22123;52.412;20.970;2023-05-09T09:49:11;101886.72;;;19.67;31.95
36062;BME280;22123;52.412;20.970;2023-05-09T09:51:38;101867.25;;;19.27;31.54
36062;BME280;22123;52.412;20.970;2023-05-09T09:54:08;101859.16;;;19.12;35.45
36062;BME280;22123;52.412;20.970;2023-05-09T09:56:41;101860.31;;;19.24;31.20
36062;BME280;22123;52.412;20.970;2023-05-09T09:59:11;101874.44;;;19.28;29.56
36062;BME280;22123;52.412;20.970;2023-05-09T10:01:59;101883.91;;;19.32;40.66
36062;BME280;22123;52.412;20.970;2023-05-09T10:04:28;101829.50;;;19.31;31.84
36062;BME280;22123;52.412;20.970;2023-05-09T10:07:02;101849.44;;;19.53;29.39
36062;BME280;22123;52.412;20.970;2023-05-09T10:09:28;101830.19;;;19.68;32.86
36062;BME280;22123;52.412;20.970;2023-05-09T10:11:55;101861.94;;;20.39;35.16
36062;BME280;22123;52.412;20.970;2023-05-09T10:14:25;101874.16;;;20.98;30.69
36062;BME280;22123;52.412;20.970;2023-05-09T10:16:54;101868.94;;;21.03;33.44
36062;BME280;22123;52.412;20.970;2023-05-09T10:19:21;101856.72;;;21.12;31.98
36062;BME280;22123;52.412;20.970;2023-05-09T10:21:56;101840.31;;;21.59;33.86
36062;BME280;22123;52.412;20.970;2023-05-09T10:24:50;101835.84;;;21.85;34.20
36062;BME280;22123;52.412;20.970;2023-05-09T10:27:21;101841.66;;;22.15;31.87
36062;BME280;22123;52.412;20.970;2023-05-09T10:29:57;101819.88;;;22.40;31.17
36062;BME280;22123;52.412;20.970;2023-05-09T10:32:46;101824.81;;;23.53;29.35
36062;BME280;22123;52.412;20.970;2023-05-09T10:35:12;101854.19;;;25.12;28.27
36062;BME280;22123;52.412;20.970;2023-05-09T10:37:39;101827.69;;;26.30;25.40
36062;BME280;22123;52.412;20.970;2023-05-09T10:40:05;101826.81;;;27.33;20.80
36062;BME280;22123;52.412;20.970;2023-05-09T10:42:31;101833.00;;;27.74;22.22
36062;BME280;22123;52.412;20.970;2023-05-09T10:44:57;101837.94;;;28.33;23.38
36062;BME280;22123;52.412;20.970;2023-05-09T10:47:26;101845.59;;;29.30;22.29
36062;BME280;22123;52.412;20.970;2023-05-09T10:49:53;101812.16;;;29.95;22.29
36062;BME280;22123;52.412;20.970;2023-05-09T10:52:20;101817.16;;;30.77;20.16
36062;BME280;22123;52.412;20.970;2023-05-09T10:54:57;101826.59;;;30.76;21.91
36062;BME280;22123;52.412;20.970;2023-05-09T10:57:23;101801.78;;;30.33;21.96
36062;BME280;22123;52.412;20.970;2023-05-09T10:59:50;101771.66;;;29.46;22.49
36062;BME280;22123;52.412;20.970;2023-05-09T11:02:18;101812.19;;;29.14;22.04
36062;BME280;22123;52.412;20.970;2023-05-09T11:04:45;101815.38;;;28.69;23.59
36062;BME280;22123;52.412;20.970;2023-05-09T11:07:25;101808.50;;;28.27;23.58
36062;BME280;22123;52.412;20.970;2023-05-09T11:09:52;101775.28;;;27.27;25.92
36062;BME280;22123;52.412;20.970;2023-05-09T11:12:31;101758.78;;;26.64;26.66
36062;BME280;22123;52.412;20.970;2023-05-09T11:15:04;101757.09;;;26.05;24.51
36062;BME280;22123;52.412;20.970;2023-05-09T11:17:31;101762.34;;;25.54;26.19
36062;BME280;22123;52.412;20.970;2023-05-09T11:19:59;101772.88;;;25.57;24.19
36062;BME280;22123;52.412;20.970;2023-05-09T11:22:29;101792.88;;;25.76;22.63
36062;BME280;22123;52.412;20.970;2023-05-09T11:24:59;101801.75;;;25.78;24.68
36062;BME280;22123;52.412;20.970;2023-05-09T11:27:27;101781.81;;;25.88;25.80
36062;BME280;22123;52.412;20.970;2023-05-09T11:29:56;101783.56;;;26.18;25.28
36062;BME280;22123;52.412;20.970;2023-05-09T11:32:33;101753.72;;;26.15;23.16
36062;BME280;22123;52.412;20.970;2023-05-09T11:38:01;101734.56;;;25.44;23.91
36062;BME280;22123;52.412;20.970;2023-05-09T11:40:27;101778.75;;;25.49;24.32
36062;BME280;22123;52.412;20.970;2023-05-09T11:42:54;101729.13;;;25.13;21.78
36062;BME280;22123;52.412;20.970;2023-05-09T11:45:22;101760.25;;;25.02;24.64
36062;BME280;22123;52.412;20.970;2023-05-09T11:47:49;101743.91;;;24.65;26.05
36062;BME280;22123;52.412;20.970;2023-05-09T11:50:17;101752.50;;;24.26;23.23
36062;BME280;22123;52.412;20.970;2023-05-09T11:52:43;101746.66;;;23.86;25.95
36062;BME280;22123;52.412;20.970;2023-05-09T11:55:11;101709.16;;;23.54;28.87
36062;BME280;22123;52.412;20.970;2023-05-09T11:57:45;101745.59;;;23.68;30.77
36062;BME280;22123;52.412;20.970;2023-05-09T12:00:16;101738.63;;;23.66;28.12
36062;BME280;22123;52.412;20.970;2023-05-09T12:02:43;101737.34;;;23.68;31.27
36062;BME280;22123;52.412;20.970;2023-05-09T12:05:11;101695.03;;;23.32;30.78
36062;BME280;22123;52.412;20.970;2023-05-09T12:07:37;101730.38;;;23.47;24.76
36062;BME280;22123;52.412;20.970;2023-05-09T12:10:15;101730.25;;;22.91;28.82
36062;BME280;22123;52.412;20.970;2023-05-09T12:12:46;101735.22;;;22.44;30.96
36062;BME280;22123;52.412;20.970;2023-05-09T12:15:13;101719.97;;;22.16;27.34
36062;BME280;22123;52.412;20.970;2023-05-09T12:17:40;101719.22;;;21.96;29.62
36062;BME280;22123;52.412;20.970;2023-05-09T12:20:07;101698.19;;;21.76;27.05
36062;BME280;22123;52.412;20.970;2023-05-09T12:22:34;101674.25;;;21.51;27.52
36062;BME280;22123;52.412;20.970;2023-05-09T12:25:01;101718.69;;;21.60;27.02
36062;BME280;22123;52.412;20.970;2023-05-09T12:27:30;101665.91;;;21.13;28.84
36062;BME280;22123;52.412;20.970;2023-05-09T12:29:56;101704.63;;;21.30;32.23
36062;BME280;22123;52.412;20.970;2023-05-09T12:32:22;101675.22;;;20.92;32.20
36062;BME280;22123;52.412;20.970;2023-05-09T12:34:48;101679.22;;;20.76;34.23
36062;BME280;22123;52.412;20.970;2023-05-09T12:37:15;101668.69;;;20.73;31.99
36062;BME280;22123;52.412;20.970;2023-05-09T12:39:41;101673.09;;;20.74;31.12
36062;BME280;22123;52.412;20.970;2023-05-09T12:42:11;101684.22;;;20.59;34.16
36062;BME280;22123;52.412;20.970;2023-05-09T12:44:37;101694.09;;;20.53;33.08
36062;BME280;22123;52.412;20.970;2023-05-09T12:47:03;101647.16;;;20.16;32.05
36062;BME280;22123;52.412;20.970;2023-05-09T12:49:30;101665.03;;;20.25;31.92
36062;BME280;22123;52.412;20.970;2023-05-09T12:51:58;101666.09;;;20.18;29.71
36062;BME280;22123;52.412;20.970;2023-05-09T12:54:28;101681.22;;;20.27;35.40
36062;BME280;22123;52.412;20.970;2023-05-09T12:56:56;101645.63;;;20.00;36.93